sensor_id;sensor_type;location;lat;lon;timestamp;P1;durP1;ratioP1;P2;durP2;ratioP2
9914;SDS011;4996;48.746;9.174;2023-08-24T00:01:19;6.73;;;4.53;;
9914;SDS011;4996;48.746;9.174;2023-08-24T00:03:45;5.90;;;4.90;;
9914;SDS011;4996;48.746;9.174;2023-08-24T00:06:11;4.50;;;4.10;;
9914;SDS011;4996;48.746;9.174;2023-08-24T00:08:37;6.13;;;4.40;;
9914;SDS011;4996;48.746;9.174;2023-08-24T00:11:03;4.60;;;4.20;;
9914;SDS011;4996;48.746;9.174;2023-08-24T00:13:29;5.53;;;4.03;;
9914;SDS011;4996;48.746;9.174;2023-08-24T00:15:55;5.40;;;4.37;;
9914;SDS011;4996;48.746;9.174;2023-08-24T00:18:20;4.83;;;4.40;;
9914;SDS011;4996;48.746;9.174;2023-08-24T00:20:47;8.60;;;5.90;;
9914;SDS011;4996;48.746;9.174;2023-08-24T00:23:16;5.00;;;4.47;;
9914;SDS011;4996;48.746;9.174;2023-08-24T00:25:41;5.07;;;4.57;;
9914;SDS011;4996;48.746;9.174;2023-08-24T00:28:07;6.47;;;4.27;;
9914;SDS011;4996;48.746;9.174;2023-08-24T00:30:33;4.40;;;4.00;;
9914;SDS011;4996;48.746;9.174;2023-08-24T00:32:58;5.70;;;4.20;;
9914;SDS011;4996;48.746;9.174;2023-08-24T00:35:24;7.13;;;5.30;;
9914;SDS011;4996;48.746;9.174;2023-08-24T00:37:49;5.37;;;3.93;;
9914;SDS011;4996;48.746;9.174;2023-08-24T00:40:15;4.83;;;4.43;;
9914;SDS011;4996;48.746;9.174;2023-08-24T00:42:42;6.40;;;4.40;;
9914;SDS011;4996;48.746;9.174;2023-08-24T00:45:09;6.33;;;4.60;;
9914;SDS011;4996;48.746;9.174;2023-08-24T00:47:40;5.80;;;4.70;;
9914;SDS011;4996;48.746;9.174;2023-08-24T00:50:10;8.03;;;5.10;;
9914;SDS011;4996;48.746;9.174;2023-08-24T00:52:37;5.10;;;4.43;;
9914;SDS011;4996;48.746;9.174;2023-08-24T00:55:04;7.10;;;4.30;;
9914;SDS011;4996;48.746;9.174;2023-08-24T00:57:31;9.40;;;4.90;;
9914;SDS011;4996;48.746;9.174;2023-08-24T00:59:57;8.13;;;5.67;;
9914;SDS011;4996;48.746;9.174;2023-08-24T01:02:26;8.23;;;5.90;;
9914;SDS011;4996;48.746;9.174;2023-08-24T01:04:51;6.60;;;5.60;;
9914;SDS011;4996;48.746;9.174;2023-08-24T01:07:17;6.13;;;5.00;;
9914;SDS011;4996;48.746;9.174;2023-08-24T01:09:43;6.97;;;6.27;;
9914;SDS011;4996;48.746;9.174;2023-08-24T01:17:34;6.77;;;6.00;;
9914;SDS011;4996;48.746;9.174;2023-08-24T01:20:02;6.37;;;5.70;;
9914;SDS011;4996;48.746;9.174;2023-08-24T01:22:32;6.80;;;6.20;;
9914;SDS011;4996;48.746;9.174;2023-08-24T01:27:59;7.03;;;6.40;;
9914;SDS011;4996;48.746;9.174;2023-08-24T01:30:26;6.03;;;5.53;;
9914;SDS011;4996;48.746;9.174;2023-08-24T01:32:51;8.37;;;6.43;;
9914;SDS011;4996;48.746;9.174;2023-08-24T01:35:17;11.17;;;7.07;;
9914;SDS011;4996;48.746;9.174;2023-08-24T01:37:42;8.00;;;6.87;;
9914;SDS011;4996;48.746;9.174;2023-08-24T01:40:16;9.03;;;6.90;;
9914;SDS011;4996;48.746;9.174;2023-08-24T01:42:51;8.40;;;6.80;;
9914;SDS011;4996;48.746;9.174;2023-08-24T01:45:22;8.07;;;7.10;;
9914;SDS011;4996;48.746;9.174;2023-08-24T01:47:49;9.37;;;6.93;;
9914;SDS011;4996;48.746;9.174;2023-08-24T01:50:19;12.50;;;6.90;;
9914;SDS011;4996;48.746;9.174;2023-08-24T01:52:44;6.97;;;6.37;;
9914;SDS011;4996;48.746;9.174;2023-08-24T01:55:10;7.27;;;6.53;;
9914;SDS011;4996;48.746;9.174;2023-08-24T01:57:37;7.07;;;6.37;;
9914;SDS011;4996;48.746;9.174;2023-08-24T02:00:03;9.37;;;6.77;;
9914;SDS011;4996;48.746;9.174;2023-08-24T02:02:31;6.63;;;6.03;;
9914;SDS011;4996;48.746;9.174;2023-08-24T02:04:58;7.53;;;6.73;;
9914;SDS011;4996;48.746;9.174;2023-08-24T02:07:23;7.33;;;6.53;;
9914;SDS011;4996;48.746;9.174;2023-08-24T02:09:49;9.70;;;7.47;;
9914;SDS011;4996;48.746;9.174;2023-08-24T02:12:14;8.83;;;6.60;;
9914;SDS011;4996;48.746;9.174;2023-08-24T02:14:40;9.73;;;6.70;;
9914;SDS011;4996;48.746;9.174;2023-08-24T02:17:05;9.80;;;6.30;;
9914;SDS011;4996;48.746;9.174;2023-08-24T02:19:31;7.13;;;6.47;;
9914;SDS011;4996;48.746;9.174;2023-08-24T02:21:56;6.90;;;6.30;;
9914;SDS011;4996;48.746;9.174;2023-08-24T02:24:22;9.87;;;6.80;;
9914;SDS011;4996;48.746;9.174;2023-08-24T02:26:47;10.43;;;6.50;;
9914;SDS011;4996;48.746;9.174;2023-08-24T02:29:13;9.57;;;5.70;;
9914;SDS011;4996;48.746;9.174;2023-08-24T02:31:38;7.03;;;6.10;;
9914;SDS011;4996;48.746;9.174;2023-08-24T02:34:05;7.57;;;6.03;;
9914;SDS011;4996;48.746;9.174;2023-08-24T02:36:31;6.80;;;6.20;;
9914;SDS011;4996;48.746;9.174;2023-08-24T02:38:58;7.33;;;6.57;;
9914;SDS011;4996;48.746;9.174;2023-08-24T02:41:24;6.93;;;6.30;;
9914;SDS011;4996;48.746;9.174;2023-08-24T02:43:49;7.37;;;6.70;;
9914;SDS011;4996;48.746;9.174;2023-08-24T02:46:15;7.60;;;6.00;;
9914;SDS011;4996;48.746;9.174;2023-08-24T02:48:40;7.43;;;5.53;;
9914;SDS011;4996;48.746;9.174;2023-08-24T02:51:07;7.40;;;5.77;;
9914;SDS011;4996;48.746;9.174;2023-08-24T02:53:33;6.33;;;5.80;;
9914;SDS011;4996;48.746;9.174;2023-08-24T02:55:59;6.70;;;5.83;;
9914;SDS011;4996;48.746;9.174;2023-08-24T02:58:24;7.77;;;6.23;;
9914;SDS011;4996;48.746;9.174;2023-08-24T03:00:51;5.80;;;5.00;;
9914;SDS011;4996;48.746;9.174;2023-08-24T03:03:17;7.83;;;5.87;;
9914;SDS011;4996;48.746;9.174;2023-08-24T03:05:59;5.97;;;5.10;;
9914;SDS011;4996;48.746;9.174;2023-08-24T03:08:25;7.10;;;4.97;;
9914;SDS011;4996;48.746;9.174;2023-08-24T03:10:51;8.37;;;5.47;;
9914;SDS011;4996;48.746;9.174;2023-08-24T03:13:17;6.37;;;5.43;;
9914;SDS011;4996;48.746;9.174;2023-08-24T03:15:43;6.27;;;4.77;;
9914;SDS011;4996;48.746;9.174;2023-08-24T03:18:10;5.70;;;5.03;;
9914;SDS011;4996;48.746;9.174;2023-08-24T03:20:38;5.70;;;5.20;;
9914;SDS011;4996;48.746;9.174;2023-08-24T03:23:04;6.47;;;5.83;;
9914;SDS011;4996;48.746;9.174;2023-08-24T03:25:30;7.40;;;5.13;;
9914;SDS011;4996;48.746;9.174;2023-08-24T03:27:56;5.83;;;5.20;;
9914;SDS011;4996;48.746;9.174;2023-08-24T03:30:22;5.73;;;5.07;;
9914;SDS011;4996;48.746;9.174;2023-08-24T03:32:47;6.20;;;5.60;;
9914;SDS011;4996;48.746;9.174;2023-08-24T03:35:13;5.37;;;4.70;;
9914;SDS011;4996;48.746;9.174;2023-08-24T03:37:39;5.47;;;4.97;;
9914;SDS011;4996;48.746;9.174;2023-08-24T03:40:05;7.30;;;5.57;;
9914;SDS011;4996;48.746;9.174;2023-08-24T03:42:31;7.90;;;5.70;;
9914;SDS011;4996;48.746;9.174;2023-08-24T03:44:58;6.60;;;5.90;;
9914;SDS011;4996;48.746;9.174;2023-08-24T03:47:24;6.23;;;5.13;;
9914;SDS011;4996;48.746;9.174;2023-08-24T03:49:50;5.47;;;4.97;;
9914;SDS011;4996;48.746;9.174;2023-08-24T03:52:15;6.90;;;5.70;;
9914;SDS011;4996;48.746;9.174;2023-08-24T03:54:41;6.53;;;6.00;;
9914;SDS011;4996;48.746;9.174;2023-08-24T03:57:06;7.60;;;6.13;;
9914;SDS011;4996;48.746;9.174;2023-08-24T03:59:33;6.03;;;5.33;;
9914;SDS011;4996;48.746;9.174;2023-08-24T04:01:58;10.07;;;5.80;;
9914;SDS011;4996;48.746;9.174;2023-08-24T04:04:27;6.67;;;6.07;;
9914;SDS011;4996;48.746;9.174;2023-08-24T04:06:52;7.80;;;6.53;;
9914;SDS011;4996;48.746;9.174;2023-08-24T04:09:18;7.90;;;6.80;;
9914;SDS011;4996;48.746;9.174;2023-08-24T04:11:44;6.37;;;5.77;;
9914;SDS011;4996;48.746;9.174;2023-08-24T04:14:09;8.53;;;6.37;;
9914;SDS011;4996;48.746;9.174;2023-08-24T04:16:35;6.60;;;6.00;;
9914;SDS011;4996;48.746;9.174;2023-08-24T04:19:00;9.03;;;5.97;;
9914;SDS011;4996;48.746;9.174;2023-08-24T04:21:26;6.67;;;6.00;;
9914;SDS011;4996;48.746;9.174;2023-08-24T04:23:51;6.60;;;6.00;;
9914;SDS011;4996;48.746;9.174;2023-08-24T04:26:17;7.47;;;6.77;;
9914;SDS011;4996;48.746;9.174;2023-08-24T04:28:43;9.73;;;6.57;;
9914;SDS011;4996;48.746;9.174;2023-08-24T04:31:08;7.63;;;6.60;;
9914;SDS011;4996;48.746;9.174;2023-08-24T04:33:34;9.50;;;6.83;;
9914;SDS011;4996;48.746;9.174;2023-08-24T04:35:59;11.17;;;6.80;;
9914;SDS011;4996;48.746;9.174;2023-08-24T04:38:26;8.33;;;7.50;;
9914;SDS011;4996;48.746;9.174;2023-08-24T04:40:53;7.70;;;6.47;;
9914;SDS011;4996;48.746;9.174;2023-08-24T04:43:21;7.00;;;6.40;;
9914;SDS011;4996;48.746;9.174;2023-08-24T04:45:51;7.20;;;6.40;;
9914;SDS011;4996;48.746;9.174;2023-08-24T04:48:21;8.20;;;7.20;;
9914;SDS011;4996;48.746;9.174;2023-08-24T04:50:47;7.40;;;6.70;;
9914;SDS011;4996;48.746;9.174;2023-08-24T04:53:14;7.77;;;5.90;;
9914;SDS011;4996;48.746;9.174;2023-08-24T04:55:44;7.17;;;6.50;;
9914;SDS011;4996;48.746;9.174;2023-08-24T04:58:10;8.33;;;7.53;;
9914;SDS011;4996;48.746;9.174;2023-08-24T05:00:37;8.80;;;7.90;;
9914;SDS011;4996;48.746;9.174;2023-08-24T05:03:03;8.00;;;7.03;;
9914;SDS011;4996;48.746;9.174;2023-08-24T05:05:30;9.40;;;8.50;;
9914;SDS011;4996;48.746;9.174;2023-08-24T05:07:56;8.40;;;7.60;;
9914;SDS011;4996;48.746;9.174;2023-08-24T05:10:22;9.33;;;7.80;;
9914;SDS011;4996;48.746;9.174;2023-08-24T05:12:47;10.73;;;6.97;;
9914;SDS011;4996;48.746;9.174;2023-08-24T05:15:13;6.63;;;5.87;;
9914;SDS011;4996;48.746;9.174;2023-08-24T05:17:39;9.30;;;6.90;;
9914;SDS011;4996;48.746;9.174;2023-08-24T05:20:05;10.87;;;6.70;;
9914;SDS011;4996;48.746;9.174;2023-08-24T05:22:33;7.77;;;6.97;;
9914;SDS011;4996;48.746;9.174;2023-08-24T05:24:58;8.27;;;6.70;;
9914;SDS011;4996;48.746;9.174;2023-08-24T05:27:24;13.37;;;7.20;;
9914;SDS011;4996;48.746;9.174;2023-08-24T05:29:49;12.43;;;6.10;;
9914;SDS011;4996;48.746;9.174;2023-08-24T05:32:15;8.20;;;6.23;;
9914;SDS011;4996;48.746;9.174;2023-08-24T05:34:40;10.53;;;7.07;;
9914;SDS011;4996;48.746;9.174;2023-08-24T05:37:06;7.73;;;6.33;;
9914;SDS011;4996;48.746;9.174;2023-08-24T05:39:31;6.07;;;5.47;;
9914;SDS011;4996;48.746;9.174;2023-08-24T05:41:57;7.70;;;6.20;;
9914;SDS011;4996;48.746;9.174;2023-08-24T05:44:22;9.80;;;6.20;;
9914;SDS011;4996;48.746;9.174;2023-08-24T05:46:48;7.33;;;6.20;;
9914;SDS011;4996;48.746;9.174;2023-08-24T05:49:13;7.43;;;6.73;;
9914;SDS011;4996;48.746;9.174;2023-08-24T05:51:39;7.13;;;6.00;;
9914;SDS011;4996;48.746;9.174;2023-08-24T05:54:05;6.70;;;6.00;;
9914;SDS011;4996;48.746;9.174;2023-08-24T05:56:30;7.70;;;6.90;;
9914;SDS011;4996;48.746;9.174;2023-08-24T05:58:57;8.87;;;6.97;;
9914;SDS011;4996;48.746;9.174;2023-08-24T06:01:23;7.53;;;6.60;;
9914;SDS011;4996;48.746;9.174;2023-08-24T06:03:49;7.90;;;6.20;;
9914;SDS011;4996;48.746;9.174;2023-08-24T06:06:15;6.87;;;6.23;;
9914;SDS011;4996;48.746;9.174;2023-08-24T06:08:41;6.80;;;6.10;;
9914;SDS011;4996;48.746;9.174;2023-08-24T06:11:07;11.50;;;6.50;;
9914;SDS011;4996;48.746;9.174;2023-08-24T06:13:33;7.13;;;6.10;;
9914;SDS011;4996;48.746;9.174;2023-08-24T06:15:58;6.80;;;6.20;;
9914;SDS011;4996;48.746;9.174;2023-08-24T06:18:24;6.73;;;6.13;;
9914;SDS011;4996;48.746;9.174;2023-08-24T06:20:49;9.07;;;6.77;;
9914;SDS011;4996;48.746;9.174;2023-08-24T06:23:18;7.40;;;6.70;;
9914;SDS011;4996;48.746;9.174;2023-08-24T06:25:44;10.20;;;6.97;;
9914;SDS011;4996;48.746;9.174;2023-08-24T06:28:10;6.30;;;5.80;;
9914;SDS011;4996;48.746;9.174;2023-08-24T06:30:37;11.47;;;6.10;;
9914;SDS011;4996;48.746;9.174;2023-08-24T06:33:04;7.93;;;6.23;;
9914;SDS011;4996;48.746;9.174;2023-08-24T06:35:30;10.67;;;5.50;;
9914;SDS011;4996;48.746;9.174;2023-08-24T06:37:55;6.33;;;5.73;;
9914;SDS011;4996;48.746;9.174;2023-08-24T06:40:21;7.53;;;5.90;;
9914;SDS011;4996;48.746;9.174;2023-08-24T06:42:46;7.00;;;5.77;;
9914;SDS011;4996;48.746;9.174;2023-08-24T06:45:12;6.33;;;5.73;;
9914;SDS011;4996;48.746;9.174;2023-08-24T06:47:38;7.30;;;5.87;;
9914;SDS011;4996;48.746;9.174;2023-08-24T06:50:04;8.17;;;5.70;;
9914;SDS011;4996;48.746;9.174;2023-08-24T06:52:31;7.40;;;6.30;;
9914;SDS011;4996;48.746;9.174;2023-08-24T06:54:57;11.77;;;6.20;;
9914;SDS011;4996;48.746;9.174;2023-08-24T06:57:22;7.60;;;5.60;;
9914;SDS011;4996;48.746;9.174;2023-08-24T06:59:48;12.73;;;5.73;;
9914;SDS011;4996;48.746;9.174;2023-08-24T07:02:13;8.53;;;5.97;;
9914;SDS011;4996;48.746;9.174;2023-08-24T07:04:39;7.83;;;5.80;;
9914;SDS011;4996;48.746;9.174;2023-08-24T07:07:06;6.90;;;5.70;;
9914;SDS011;4996;48.746;9.174;2023-08-24T07:09:31;6.80;;;5.23;;
9914;SDS011;4996;48.746;9.174;2023-08-24T07:11:57;6.70;;;5.57;;
9914;SDS011;4996;48.746;9.174;2023-08-24T07:14:22;6.83;;;6.00;;
9914;SDS011;4996;48.746;9.174;2023-08-24T07:16:48;5.90;;;5.40;;
9914;SDS011;4996;48.746;9.174;2023-08-24T07:19:14;11.30;;;5.80;;
9914;SDS011;4996;48.746;9.174;2023-08-24T07:21:39;7.37;;;5.67;;
9914;SDS011;4996;48.746;9.174;2023-08-24T07:24:05;12.67;;;6.17;;
9914;SDS011;4996;48.746;9.174;2023-08-24T07:26:30;10.60;;;5.83;;
9914;SDS011;4996;48.746;9.174;2023-08-24T07:28:56;8.43;;;4.93;;
9914;SDS011;4996;48.746;9.174;2023-08-24T07:31:22;8.03;;;4.93;;
9914;SDS011;4996;48.746;9.174;2023-08-24T07:33:47;7.10;;;5.17;;
9914;SDS011;4996;48.746;9.174;2023-08-24T07:36:13;12.77;;;5.63;;
9914;SDS011;4996;48.746;9.174;2023-08-24T07:38:39;8.10;;;5.30;;
9914;SDS011;4996;48.746;9.174;2023-08-24T07:41:04;6.10;;;5.07;;
9914;SDS011;4996;48.746;9.174;2023-08-24T07:43:31;10.90;;;6.13;;
9914;SDS011;4996;48.746;9.174;2023-08-24T07:45:57;8.70;;;6.00;;
9914;SDS011;4996;48.746;9.174;2023-08-24T07:48:23;7.30;;;6.00;;
9914;SDS011;4996;48.746;9.174;2023-08-24T07:50:48;6.80;;;5.70;;
9914;SDS011;4996;48.746;9.174;2023-08-24T07:53:14;8.53;;;6.00;;
9914;SDS011;4996;48.746;9.174;2023-08-24T07:55:40;10.37;;;6.33;;
9914;SDS011;4996;48.746;9.174;2023-08-24T07:58:05;8.30;;;6.80;;
9914;SDS011;4996;48.746;9.174;2023-08-24T08:00:31;7.67;;;6.93;;
9914;SDS011;4996;48.746;9.174;2023-08-24T08:02:57;8.07;;;6.67;;
9914;SDS011;4996;48.746;9.174;2023-08-24T08:05:23;11.87;;;6.27;;
9914;SDS011;4996;48.746;9.174;2023-08-24T08:07:49;10.93;;;6.03;;
9914;SDS011;4996;48.746;9.174;2023-08-24T08:10:14;9.30;;;7.30;;
9914;SDS011;4996;48.746;9.174;2023-08-24T08:12:42;8.80;;;6.73;;
9914;SDS011;4996;48.746;9.174;2023-08-24T08:15:08;8.07;;;5.73;;
9914;SDS011;4996;48.746;9.174;2023-08-24T08:17:34;13.07;;;6.50;;
9914;SDS011;4996;48.746;9.174;2023-08-24T08:19:59;10.30;;;7.57;;
9914;SDS011;4996;48.746;9.174;2023-08-24T08:22:25;12.73;;;6.37;;
9914;SDS011;4996;48.746;9.174;2023-08-24T08:24:51;11.17;;;7.57;;
9914;SDS011;4996;48.746;9.174;2023-08-24T08:27:19;8.20;;;7.23;;
9914;SDS011;4996;48.746;9.174;2023-08-24T08:29:44;7.10;;;6.40;;
9914;SDS011;4996;48.746;9.174;2023-08-24T08:32:10;8.87;;;6.10;;
9914;SDS011;4996;48.746;9.174;2023-08-24T08:34:37;9.53;;;6.80;;
9914;SDS011;4996;48.746;9.174;2023-08-24T08:37:02;9.73;;;5.63;;
9914;SDS011;4996;48.746;9.174;2023-08-24T08:39:28;7.63;;;5.00;;
9914;SDS011;4996;48.746;9.174;2023-08-24T08:41:54;6.70;;;5.30;;
9914;SDS011;4996;48.746;9.174;2023-08-24T08:44:20;9.80;;;5.53;;
9914;SDS011;4996;48.746;9.174;2023-08-24T08:46:47;7.07;;;6.30;;
9914;SDS011;4996;48.746;9.174;2023-08-24T08:49:14;9.00;;;5.37;;
9914;SDS011;4996;48.746;9.174;2023-08-24T08:51:42;6.47;;;5.80;;
9914;SDS011;4996;48.746;9.174;2023-08-24T08:54:08;6.70;;;5.30;;
9914;SDS011;4996;48.746;9.174;2023-08-24T08:56:34;7.47;;;5.00;;
9914;SDS011;4996;48.746;9.174;2023-08-24T08:59:00;9.03;;;6.20;;
9914;SDS011;4996;48.746;9.174;2023-08-24T09:01:27;6.80;;;5.70;;
9914;SDS011;4996;48.746;9.174;2023-08-24T09:03:53;8.30;;;5.70;;
9914;SDS011;4996;48.746;9.174;2023-08-24T09:06:19;8.77;;;5.37;;
9914;SDS011;4996;48.746;9.174;2023-08-24T09:08:45;9.47;;;5.40;;
9914;SDS011;4996;48.746;9.174;2023-08-24T09:11:12;6.67;;;4.57;;
9914;SDS011;4996;48.746;9.174;2023-08-24T09:13:39;5.37;;;4.80;;
9914;SDS011;4996;48.746;9.174;2023-08-24T09:16:05;9.10;;;4.90;;
9914;SDS011;4996;48.746;9.174;2023-08-24T09:18:38;6.67;;;4.43;;
9914;SDS011;4996;48.746;9.174;2023-08-24T09:21:11;5.60;;;5.10;;
9914;SDS011;4996;48.746;9.174;2023-08-24T09:23:38;5.90;;;5.10;;
9914;SDS011;4996;48.746;9.174;2023-08-24T09:26:10;6.87;;;5.57;;
9914;SDS011;4996;48.746;9.174;2023-08-24T09:28:35;5.70;;;4.63;;
9914;SDS011;4996;48.746;9.174;2023-08-24T09:31:01;5.40;;;4.50;;
9914;SDS011;4996;48.746;9.174;2023-08-24T09:33:28;6.27;;;4.60;;
9914;SDS011;4996;48.746;9.174;2023-08-24T09:35:54;9.50;;;5.63;;
9914;SDS011;4996;48.746;9.174;2023-08-24T09:38:26;5.90;;;4.70;;
9914;SDS011;4996;48.746;9.174;2023-08-24T09:40:53;6.23;;;4.87;;
9914;SDS011;4996;48.746;9.174;2023-08-24T09:43:20;6.27;;;4.50;;
9914;SDS011;4996;48.746;9.174;2023-08-24T09:45:53;8.57;;;5.40;;
9914;SDS011;4996;48.746;9.174;2023-08-24T09:48:22;7.00;;;5.07;;
9914;SDS011;4996;48.746;9.174;2023-08-24T09:50:49;5.20;;;4.70;;
9914;SDS011;4996;48.746;9.174;2023-08-24T09:53:19;15.07;;;5.00;;
9914;SDS011;4996;48.746;9.174;2023-08-24T09:55:49;7.10;;;5.17;;
9914;SDS011;4996;48.746;9.174;2023-08-24T09:58:25;6.50;;;4.50;;
9914;SDS011;4996;48.746;9.174;2023-08-24T10:00:51;7.30;;;4.23;;
9914;SDS011;4996;48.746;9.174;2023-08-24T10:03:18;5.73;;;5.17;;
9914;SDS011;4996;48.746;9.174;2023-08-24T10:05:52;5.20;;;4.53;;
9914;SDS011;4996;48.746;9.174;2023-08-24T10:08:20;5.43;;;4.93;;
9914;SDS011;4996;48.746;9.174;2023-08-24T10:10:51;6.37;;;4.83;;
9914;SDS011;4996;48.746;9.174;2023-08-24T10:13:20;5.00;;;4.60;;
9914;SDS011;4996;48.746;9.174;2023-08-24T10:16:13;11.33;;;5.33;;
9914;SDS011;4996;48.746;9.174;2023-08-24T10:18:40;6.83;;;5.60;;
9914;SDS011;4996;48.746;9.174;2023-08-24T10:21:07;8.93;;;5.07;;
9914;SDS011;4996;48.746;9.174;2023-08-24T10:23:34;10.03;;;5.97;;
9914;SDS011;4996;48.746;9.174;2023-08-24T10:26:02;10.57;;;5.00;;
9914;SDS011;4996;48.746;9.174;2023-08-24T10:28:28;5.67;;;5.03;;
9914;SDS011;4996;48.746;9.174;2023-08-24T10:30:54;6.57;;;4.93;;
9914;SDS011;4996;48.746;9.174;2023-08-24T10:33:22;7.03;;;5.87;;
9914;SDS011;4996;48.746;9.174;2023-08-24T10:35:48;7.47;;;5.50;;
9914;SDS011;4996;48.746;9.174;2023-08-24T10:38:27;7.30;;;5.23;;
9914;SDS011;4996;48.746;9.174;2023-08-24T10:40:54;5.43;;;4.77;;
9914;SDS011;4996;48.746;9.174;2023-08-24T10:43:27;5.90;;;5.40;;
9914;SDS011;4996;48.746;9.174;2023-08-24T10:51:24;10.00;;;5.20;;
9914;SDS011;4996;48.746;9.174;2023-08-24T10:53:55;11.57;;;5.97;;
9914;SDS011;4996;48.746;9.174;2023-08-24T10:59:10;8.60;;;5.30;;
9914;SDS011;4996;48.746;9.174;2023-08-24T11:01:43;10.23;;;6.47;;
9914;SDS011;4996;48.746;9.174;2023-08-24T11:04:15;12.17;;;5.27;;
9914;SDS011;4996;48.746;9.174;2023-08-24T11:06:53;8.10;;;6.00;;
9914;SDS011;4996;48.746;9.174;2023-08-24T11:09:23;6.50;;;5.90;;
9914;SDS011;4996;48.746;9.174;2023-08-24T11:11:56;6.00;;;5.50;;
9914;SDS011;4996;48.746;9.174;2023-08-24T11:14:22;6.23;;;5.63;;
9914;SDS011;4996;48.746;9.174;2023-08-24T11:16:50;7.57;;;5.60;;
9914;SDS011;4996;48.746;9.174;2023-08-24T11:19:16;6.60;;;6.00;;
9914;SDS011;4996;48.746;9.174;2023-08-24T11:21:43;7.30;;;5.20;;
9914;SDS011;4996;48.746;9.174;2023-08-24T11:24:10;6.20;;;5.60;;
9914;SDS011;4996;48.746;9.174;2023-08-24T11:26:42;6.43;;;5.70;;
9914;SDS011;4996;48.746;9.174;2023-08-24T11:29:09;13.07;;;5.73;;
9914;SDS011;4996;48.746;9.174;2023-08-24T11:31:36;11.83;;;5.80;;
9914;SDS011;4996;48.746;9.174;2023-08-24T11:34:02;7.77;;;5.80;;
9914;SDS011;4996;48.746;9.174;2023-08-24T11:36:29;7.27;;;6.07;;
9914;SDS011;4996;48.746;9.174;2023-08-24T11:38:58;19.17;;;5.80;;
9914;SDS011;4996;48.746;9.174;2023-08-24T11:41:24;9.63;;;5.90;;
9914;SDS011;4996;48.746;9.174;2023-08-24T11:43:58;5.90;;;5.03;;
9914;SDS011;4996;48.746;9.174;2023-08-24T11:46:24;9.50;;;5.30;;
9914;SDS011;4996;48.746;9.174;2023-08-24T11:48:52;6.40;;;5.33;;
9914;SDS011;4996;48.746;9.174;2023-08-24T11:51:18;7.77;;;5.80;;
9914;SDS011;4996;48.746;9.174;2023-08-24T11:53:44;7.07;;;5.17;;
9914;SDS011;4996;48.746;9.174;2023-08-24T11:56:13;17.23;;;5.80;;
9914;SDS011;4996;48.746;9.174;2023-08-24T11:58:41;7.10;;;5.93;;
9914;SDS011;4996;48.746;9.174;2023-08-24T12:01:09;5.60;;;5.10;;
9914;SDS011;4996;48.746;9.174;2023-08-24T12:03:38;5.97;;;5.40;;
9914;SDS011;4996;48.746;9.174;2023-08-24T12:06:14;8.97;;;5.77;;
9914;SDS011;4996;48.746;9.174;2023-08-24T12:08:41;11.63;;;6.63;;
9914;SDS011;4996;48.746;9.174;2023-08-24T12:11:14;10.03;;;4.90;;
9914;SDS011;4996;48.746;9.174;2023-08-24T12:13:45;9.13;;;5.57;;
9914;SDS011;4996;48.746;9.174;2023-08-24T12:16:16;5.77;;;5.20;;
9914;SDS011;4996;48.746;9.174;2023-08-24T12:18:46;5.67;;;5.17;;
9914;SDS011;4996;48.746;9.174;2023-08-24T12:21:16;5.40;;;4.87;;
9914;SDS011;4996;48.746;9.174;2023-08-24T12:23:42;9.37;;;5.77;;
9914;SDS011;4996;48.746;9.174;2023-08-24T12:26:07;10.43;;;4.97;;
9914;SDS011;4996;48.746;9.174;2023-08-24T12:28:33;7.00;;;5.43;;
9914;SDS011;4996;48.746;9.174;2023-08-24T12:31:00;5.80;;;4.77;;
9914;SDS011;4996;48.746;9.174;2023-08-24T12:33:28;7.03;;;6.33;;
9914;SDS011;4996;48.746;9.174;2023-08-24T12:35:55;7.33;;;5.57;;
9914;SDS011;4996;48.746;9.174;2023-08-24T12:38:21;6.37;;;5.30;;
9914;SDS011;4996;48.746;9.174;2023-08-24T12:40:49;6.10;;;5.30;;
9914;SDS011;4996;48.746;9.174;2023-08-24T12:43:15;10.53;;;6.07;;
9914;SDS011;4996;48.746;9.174;2023-08-24T12:45:40;7.13;;;5.60;;
9914;SDS011;4996;48.746;9.174;2023-08-24T12:48:06;10.13;;;5.87;;
9914;SDS011;4996;48.746;9.174;2023-08-24T12:50:32;5.60;;;4.60;;
9914;SDS011;4996;48.746;9.174;2023-08-24T12:52:59;9.50;;;5.83;;
9914;SDS011;4996;48.746;9.174;2023-08-24T12:55:28;8.63;;;6.40;;
9914;SDS011;4996;48.746;9.174;2023-08-24T12:57:53;9.37;;;6.47;;
9914;SDS011;4996;48.746;9.174;2023-08-24T13:00:19;7.20;;;5.40;;
9914;SDS011;4996;48.746;9.174;2023-08-24T13:02:45;7.87;;;5.27;;
9914;SDS011;4996;48.746;9.174;2023-08-24T13:05:11;5.30;;;4.80;;
9914;SDS011;4996;48.746;9.174;2023-08-24T13:07:36;7.17;;;5.33;;
9914;SDS011;4996;48.746;9.174;2023-08-24T13:10:03;6.13;;;5.53;;
9914;SDS011;4996;48.746;9.174;2023-08-24T13:12:29;11.83;;;5.50;;
9914;SDS011;4996;48.746;9.174;2023-08-24T13:14:55;8.80;;;6.27;;
9914;SDS011;4996;48.746;9.174;2023-08-24T13:17:20;7.73;;;5.00;;
9914;SDS011;4996;48.746;9.174;2023-08-24T13:19:46;9.67;;;5.20;;
9914;SDS011;4996;48.746;9.174;2023-08-24T13:22:13;11.00;;;5.70;;
9914;SDS011;4996;48.746;9.174;2023-08-24T13:24:39;6.97;;;5.40;;
9914;SDS011;4996;48.746;9.174;2023-08-24T13:27:05;11.33;;;5.33;;
9914;SDS011;4996;48.746;9.174;2023-08-24T13:29:35;8.80;;;4.83;;
9914;SDS011;4996;48.746;9.174;2023-08-24T13:32:01;6.90;;;5.40;;
9914;SDS011;4996;48.746;9.174;2023-08-24T13:34:26;13.30;;;5.57;;
9914;SDS011;4996;48.746;9.174;2023-08-24T13:36:52;6.87;;;4.70;;
9914;SDS011;4996;48.746;9.174;2023-08-24T13:39:17;6.93;;;5.13;;
9914;SDS011;4996;48.746;9.174;2023-08-24T13:41:43;9.47;;;5.57;;
9914;SDS011;4996;48.746;9.174;2023-08-24T13:44:09;11.80;;;5.60;;
9914;SDS011;4996;48.746;9.174;2023-08-24T13:46:34;10.47;;;5.07;;
9914;SDS011;4996;48.746;9.174;2023-08-24T13:49:00;6.77;;;5.63;;
9914;SDS011;4996;48.746;9.174;2023-08-24T13:51:25;8.27;;;5.33;;
9914;SDS011;4996;48.746;9.174;2023-08-24T13:53:51;12.53;;;5.97;;
9914;SDS011;4996;48.746;9.174;2023-08-24T13:56:16;5.87;;;4.50;;
9914;SDS011;4996;48.746;9.174;2023-08-24T13:58:42;9.87;;;4.30;;
9914;SDS011;4996;48.746;9.174;2023-08-24T14:01:07;12.63;;;4.50;;
9914;SDS011;4996;48.746;9.174;2023-08-24T14:03:35;5.60;;;4.10;;
9914;SDS011;4996;48.746;9.174;2023-08-24T14:06:02;8.10;;;4.63;;
9914;SDS011;4996;48.746;9.174;2023-08-24T14:08:28;11.83;;;5.70;;
9914;SDS011;4996;48.746;9.174;2023-08-24T14:10:53;7.17;;;4.53;;
9914;SDS011;4996;48.746;9.174;2023-08-24T14:13:19;8.10;;;4.27;;
9914;SDS011;4996;48.746;9.174;2023-08-24T14:15:47;6.93;;;4.93;;
9914;SDS011;4996;48.746;9.174;2023-08-24T14:18:13;7.90;;;4.63;;
9914;SDS011;4996;48.746;9.174;2023-08-24T14:20:39;12.53;;;4.40;;
9914;SDS011;4996;48.746;9.174;2023-08-24T14:23:04;7.20;;;4.63;;
9914;SDS011;4996;48.746;9.174;2023-08-24T14:25:30;10.10;;;4.30;;
9914;SDS011;4996;48.746;9.174;2023-08-24T14:27:55;22.00;;;5.60;;
9914;SDS011;4996;48.746;9.174;2023-08-24T14:30:21;14.30;;;5.10;;
9914;SDS011;4996;48.746;9.174;2023-08-24T14:32:46;8.37;;;4.30;;
9914;SDS011;4996;48.746;9.174;2023-08-24T14:35:12;6.70;;;4.83;;
9914;SDS011;4996;48.746;9.174;2023-08-24T14:37:37;11.60;;;4.60;;
9914;SDS011;4996;48.746;9.174;2023-08-24T14:40:04;10.03;;;4.20;;
9914;SDS011;4996;48.746;9.174;2023-08-24T14:42:30;7.77;;;4.30;;
9914;SDS011;4996;48.746;9.174;2023-08-24T14:44:56;7.90;;;4.60;;
9914;SDS011;4996;48.746;9.174;2023-08-24T14:47:21;15.97;;;5.07;;
9914;SDS011;4996;48.746;9.174;2023-08-24T14:49:47;6.47;;;4.50;;
9914;SDS011;4996;48.746;9.174;2023-08-24T14:52:13;7.73;;;4.87;;
9914;SDS011;4996;48.746;9.174;2023-08-24T14:54:38;9.60;;;4.70;;
9914;SDS011;4996;48.746;9.174;2023-08-24T14:57:04;6.53;;;5.00;;
9914;SDS011;4996;48.746;9.174;2023-08-24T14:59:31;8.57;;;5.20;;
9914;SDS011;4996;48.746;9.174;2023-08-24T15:01:56;11.90;;;5.43;;
9914;SDS011;4996;48.746;9.174;2023-08-24T15:04:25;9.73;;;4.93;;
9914;SDS011;4996;48.746;9.174;2023-08-24T15:06:51;13.17;;;5.97;;
9914;SDS011;4996;48.746;9.174;2023-08-24T15:09:17;14.23;;;6.03;;
9914;SDS011;4996;48.746;9.174;2023-08-24T15:11:43;11.33;;;6.03;;
9914;SDS011;4996;48.746;9.174;2023-08-24T15:14:08;12.73;;;6.40;;
9914;SDS011;4996;48.746;9.174;2023-08-24T15:16:34;7.13;;;5.87;;
9914;SDS011;4996;48.746;9.174;2023-08-24T15:19:00;7.00;;;4.37;;
9914;SDS011;4996;48.746;9.174;2023-08-24T15:21:26;5.57;;;4.47;;
9914;SDS011;4996;48.746;9.174;2023-08-24T15:23:53;6.23;;;3.40;;
9914;SDS011;4996;48.746;9.174;2023-08-24T15:26:18;4.97;;;4.13;;